sensor_id;sensor_type;location;lat;lon;timestamp;pressure;altitude;pressure_sealevel;temperature;humidity
13348;BME280;6743;49.934;9.138;2023-01-28T00:00:34;101292.44;;;2.72;100.00
13348;BME280;6743;49.934;9.138;2023-01-28T00:03:01;101300.31;;;2.72;100.00
13348;BME280;6743;49.934;9.138;2023-01-28T00:05:28;101294.22;;;2.72;100.00
13348;BME280;6743;49.934;9.138;2023-01-28T00:07:55;101289.91;;;2.71;100.00
13348;BME280;6743;49.934;9.138;2023-01-28T00:10:21;101287.28;;;2.71;100.00
13348;BME280;6743;49.934;9.138;2023-01-28T00:12:47;101290.84;;;2.70;100.00
13348;BME280;6743;49.934;9.138;2023-01-28T00:15:18;101277.84;;;2.68;100.00
13348;BME280;6743;49.934;9.138;2023-01-28T00:17:44;101270.91;;;2.67;100.00
13348;BME280;6743;49.934;9.138;2023-01-28T00:20:13;101277.94;;;2.67;100.00
13348;BME280;6743;49.934;9.138;2023-01-28T00:22:39;101272.00;;;2.63;100.00
13348;BME280;6743;49.934;9.138;2023-01-28T00:25:09;101273.69;;;2.64;100.00
13348;BME280;6743;49.934;9.138;2023-01-28T00:27:35;101269.38;;;2.63;100.00
13348;BME280;6743;49.934;9.138;2023-01-28T00:30:00;101263.66;;;2.57;100.00
13348;BME280;6743;49.934;9.138;2023-01-28T00:32:26;101267.72;;;2.62;100.00
13348;BME280;6743;49.934;9.138;2023-01-28T00:34:52;101269.59;;;2.60;100.00
13348;BME280;6743;49.934;9.138;2023-01-28T00:37:19;101269.59;;;2.60;100.00
13348;BME280;6743;49.934;9.138;2023-01-28T00:39:46;101269.59;;;2.60;100.00
13348;BME280;6743;49.934;9.138;2023-01-28T00:42:13;101271.28;;;2.61;100.00
13348;BME280;6743;49.934;9.138;2023-01-28T00:44:40;101280.06;;;2.60;100.00
13348;BME280;6743;49.934;9.138;2023-01-28T00:47:06;101279.12;;;2.61;100.00
13348;BME280;6743;49.934;9.138;2023-01-28T00:49:32;101279.97;;;2.62;100.00
13348;BME280;6743;49.934;9.138;2023-01-28T00:51:59;101280.06;;;2.60;100.00
13348;BME280;6743;49.934;9.138;2023-01-28T00:54:25;101277.44;;;2.60;100.00
13348;BME280;6743;49.934;9.138;2023-01-28T00:56:51;101286.16;;;2.61;100.00
13348;BME280;6743;49.934;9.138;2023-01-28T00:59:18;101278.38;;;2.59;100.00
13348;BME280;6743;49.934;9.138;2023-01-28T01:01:44;101276.59;;;2.60;100.00
13348;BME280;6743;49.934;9.138;2023-01-28T01:04:13;101275.75;;;2.59;100.00
13348;BME280;6743;49.934;9.138;2023-01-28T01:06:53;101288.78;;;2.61;100.00
13348;BME280;6743;49.934;9.138;2023-01-28T01:09:19;101284.37;;;2.61;100.00
13348;BME280;6743;49.934;9.138;2023-01-28T01:11:44;101285.22;;;2.62;100.00
13348;BME280;6743;49.934;9.138;2023-01-28T01:14:10;101281.63;;;2.63;100.00
13348;BME280;6743;49.934;9.138;2023-01-28T01:16:37;101287.06;;;2.60;100.00
13348;BME280;6743;49.934;9.138;2023-01-28T01:19:03;101269.03;;;2.55;100.00
13348;BME280;6743;49.934;9.138;2023-01-28T01:21:31;101279.97;;;2.62;100.00
13348;BME280;6743;49.934;9.138;2023-01-28T01:23:59;101284.25;;;2.63;100.00
13348;BME280;6743;49.934;9.138;2023-01-28T01:26:25;101281.63;;;2.63;100.00
13348;BME280;6743;49.934;9.138;2023-01-28T01:28:52;101287.72;;;2.63;100.00
13348;BME280;6743;49.934;9.138;2023-01-28T01:31:19;101281.56;;;2.64;100.00
13348;BME280;6743;49.934;9.138;2023-01-28T01:33:48;101293.72;;;2.65;100.00
13348;BME280;6743;49.934;9.138;2023-01-28T01:36:16;101299.72;;;2.67;100.00
13348;BME280;6743;49.934;9.138;2023-01-28T01:38:43;101296.28;;;2.67;100.00
13348;BME280;6743;49.934;9.138;2023-01-28T01:41:21;101293.66;;;2.67;100.00
13348;BME280;6743;49.934;9.138;2023-01-28T01:43:50;101298.81;;;2.68;100.00
13348;BME280;6743;49.934;9.138;2023-01-28T01:46:20;101296.28;;;2.67;100.00
13348;BME280;6743;49.934;9.138;2023-01-28T01:48:48;101273.56;;;2.52;100.00
13348;BME280;6743;49.934;9.138;2023-01-28T01:51:17;101296.19;;;2.68;100.00
13348;BME280;6743;49.934;9.138;2023-01-28T01:53:46;101302.34;;;2.67;100.00
13348;BME280;6743;49.934;9.138;2023-01-28T01:56:18;101303.19;;;2.68;100.00
13348;BME280;6743;49.934;9.138;2023-01-28T01:58:49;101300.50;;;2.69;100.00
13348;BME280;6743;49.934;9.138;2023-01-28T02:01:20;101290.34;;;2.63;100.00
13348;BME280;6743;49.934;9.138;2023-01-28T02:03:52;101301.50;;;2.67;100.00
13348;BME280;6743;49.934;9.138;2023-01-28T02:06:21;101293.56;;;2.68;100.00
13348;BME280;6743;49.934;9.138;2023-01-28T02:08:47;101298.03;;;2.66;100.00
13348;BME280;6743;49.934;9.138;2023-01-28T02:11:13;101298.13;;;2.65;100.00
13348;BME280;6743;49.934;9.138;2023-01-28T02:13:43;101296.34;;;2.65;100.00
13348;BME280;6743;49.934;9.138;2023-01-28T02:16:11;101298.97;;;2.65;100.00
13348;BME280;6743;49.934;9.138;2023-01-28T02:18:37;101305.97;;;2.65;100.00
13348;BME280;6743;49.934;9.138;2023-01-28T02:21:25;101307.84;;;2.63;100.00
13348;BME280;6743;49.934;9.138;2023-01-28T02:24:20;101310.47;;;2.63;100.00
13348;BME280;6743;49.934;9.138;2023-01-28T02:27:10;101310.47;;;2.63;100.00
13348;BME280;6743;49.934;9.138;2023-01-28T02:29:43;101303.56;;;2.62;100.00
13348;BME280;6743;49.934;9.138;2023-01-28T02:32:16;101307.84;;;2.63;100.00
13348;BME280;6743;49.934;9.138;2023-01-28T02:34:45;101309.81;;;2.59;100.00
13348;BME280;6743;49.934;9.138;2023-01-28T02:37:14;101302.22;;;2.55;100.00
13348;BME280;6743;49.934;9.138;2023-01-28T02:39:45;101315.88;;;2.60;100.00
13348;BME280;6743;49.934;9.138;2023-01-28T02:42:15;101315.03;;;2.59;100.00
13348;BME280;6743;49.934;9.138;2023-01-28T02:44:43;101312.50;;;2.58;100.00
13348;BME280;6743;49.934;9.138;2023-01-28T02:47:10;101307.28;;;2.58;100.00
13348;BME280;6743;49.934;9.138;2023-01-28T02:49:56;101309.03;;;2.57;100.00
13348;BME280;6743;49.934;9.138;2023-01-28T02:52:43;101312.69;;;2.55;100.00
13348;BME280;6743;49.934;9.138;2023-01-28T02:55:39;101313.62;;;2.54;100.00
13348;BME280;6743;49.934;9.138;2023-01-28T02:58:13;101311.84;;;2.54;100.00
13348;BME280;6743;49.934;9.138;2023-01-28T03:00:48;101316.25;;;2.54;100.00
13348;BME280;6743;49.934;9.138;2023-01-28T03:03:20;101309.41;;;2.51;100.00
13348;BME280;6743;49.934;9.138;2023-01-28T03:05:51;101315.47;;;2.52;100.00
13348;BME280;6743;49.934;9.138;2023-01-28T03:08:34;101303.59;;;2.46;100.00
13348;BME280;6743;49.934;9.138;2023-01-28T03:11:19;101300.38;;;2.41;100.00
13348;BME280;6743;49.934;9.138;2023-01-28T03:14:05;101302.25;;;2.39;100.00
13348;BME280;6743;49.934;9.138;2023-01-28T03:16:52;101321.91;;;2.46;100.00
13348;BME280;6743;49.934;9.138;2023-01-28T03:19:37;101322.00;;;2.45;100.00
13348;BME280;6743;49.934;9.138;2023-01-28T03:22:23;101324.69;;;2.43;100.00
13348;BME280;6743;49.934;9.138;2023-01-28T03:25:10;101321.41;;;2.40;100.00
13348;BME280;6743;49.934;9.138;2023-01-28T03:27:59;101325.81;;;2.39;100.00
13348;BME280;6743;49.934;9.138;2023-01-28T03:30:52;101328.44;;;2.39;100.00
13348;BME280;6743;49.934;9.138;2023-01-28T03:33:41;101332.97;;;2.35;100.00
13348;BME280;6743;49.934;9.138;2023-01-28T03:36:27;101320.94;;;2.17;100.00
13348;BME280;6743;49.934;9.138;2023-01-28T03:39:12;101340.34;;;2.29;100.00
13348;BME280;6743;49.934;9.138;2023-01-28T03:41:38;101331.75;;;2.27;100.00
13348;BME280;6743;49.934;9.138;2023-01-28T03:44:04;101342.28;;;2.25;100.00
13348;BME280;6743;49.934;9.138;2023-01-28T03:46:48;101337.91;;;2.26;100.00
13348;BME280;6743;49.934;9.138;2023-01-28T03:49:15;101337.06;;;2.25;100.00
13348;BME280;6743;49.934;9.138;2023-01-28T03:51:41;101343.31;;;2.23;100.00
13348;BME280;6743;49.934;9.138;2023-01-28T03:54:08;101340.69;;;2.23;100.00
13348;BME280;6743;49.934;9.138;2023-01-28T03:56:34;101348.53;;;2.23;100.00
13348;BME280;6743;49.934;9.138;2023-01-28T03:59:02;101335.28;;;2.10;100.00
13348;BME280;6743;49.934;9.138;2023-01-28T04:01:28;101359.84;;;2.23;100.00
13348;BME280;6743;49.934;9.138;2023-01-28T04:03:53;101366.72;;;2.26;100.00
13348;BME280;6743;49.934;9.138;2023-01-28T04:06:20;101361.41;;;2.27;100.00
13348;BME280;6743;49.934;9.138;2023-01-28T04:08:46;101359.63;;;2.28;100.00
13348;BME280;6743;49.934;9.138;2023-01-28T04:11:17;101345.56;;;2.29;100.00
13348;BME280;6743;49.934;9.138;2023-01-28T04:13:44;101359.63;;;2.28;100.00
13348;BME280;6743;49.934;9.138;2023-01-28T04:16:11;101361.41;;;2.27;100.00
13348;BME280;6743;49.934;9.138;2023-01-28T04:18:37;101365.69;;;2.28;100.00
13348;BME280;6743;49.934;9.138;2023-01-28T04:21:03;101359.63;;;2.28;100.00
13348;BME280;6743;49.934;9.138;2023-01-28T04:23:30;101358.66;;;2.29;100.00
13348;BME280;6743;49.934;9.138;2023-01-28T04:25:56;101348.72;;;2.20;100.00
13348;BME280;6743;49.934;9.138;2023-01-28T04:28:22;101365.53;;;2.31;100.00
13348;BME280;6743;49.934;9.138;2023-01-28T04:30:48;101358.66;;;2.29;100.00
13348;BME280;6743;49.934;9.138;2023-01-28T04:33:14;101363.75;;;2.32;100.00
13348;BME280;6743;49.934;9.138;2023-01-28T04:35:40;101364.59;;;2.32;100.00
13348;BME280;6743;49.934;9.138;2023-01-28T04:38:06;101367.28;;;2.31;100.00
13348;BME280;6743;49.934;9.138;2023-01-28T04:40:33;101347.03;;;2.19;100.00
13348;BME280;6743;49.934;9.138;2023-01-28T04:42:59;101368.13;;;2.31;100.00
13348;BME280;6743;49.934;9.138;2023-01-28T04:45:25;101367.38;;;2.29;100.00
13348;BME280;6743;49.934;9.138;2023-01-28T04:47:51;101368.41;;;2.27;100.00
13348;BME280;6743;49.934;9.138;2023-01-28T04:50:17;101357.44;;;2.20;100.00
13348;BME280;6743;49.934;9.138;2023-01-28T04:52:43;101358.34;;;2.19;100.00
13348;BME280;6743;49.934;9.138;2023-01-28T04:55:09;101376.25;;;2.27;100.00
13348;BME280;6743;49.934;9.138;2023-01-28T04:57:36;101373.63;;;2.27;100.00
13348;BME280;6743;49.934;9.138;2023-01-28T05:00:03;101371.03;;;2.27;100.00
13348;BME280;6743;49.934;9.138;2023-01-28T05:02:30;101373.63;;;2.27;100.00
13348;BME280;6743;49.934;9.138;2023-01-28T05:04:56;101372.87;;;2.25;100.00
13348;BME280;6743;49.934;9.138;2023-01-28T05:07:22;101372.87;;;2.25;100.00
13348;BME280;6743;49.934;9.138;2023-01-28T05:09:48;101376.41;;;2.24;100.00
13348;BME280;6743;49.934;9.138;2023-01-28T05:12:14;101361.31;;;2.13;100.00
13348;BME280;6743;49.934;9.138;2023-01-28T05:14:40;101386.03;;;2.23;100.00
13348;BME280;6743;49.934;9.138;2023-01-28T05:17:06;101379.09;;;2.22;100.00
13348;BME280;6743;49.934;9.138;2023-01-28T05:19:32;101379.22;;;2.21;100.00
13348;BME280;6743;49.934;9.138;2023-01-28T05:21:58;101382.66;;;2.21;100.00
13348;BME280;6743;49.934;9.138;2023-01-28T05:24:24;101390.44;;;2.23;100.00
13348;BME280;6743;49.934;9.138;2023-01-28T05:26:50;101380.88;;;2.22;100.00
13348;BME280;6743;49.934;9.138;2023-01-28T05:29:16;101367.78;;;2.22;100.00
13348;BME280;6743;49.934;9.138;2023-01-28T05:31:42;101380.88;;;2.22;100.00
13348;BME280;6743;49.934;9.138;2023-01-28T05:34:08;101379.09;;;2.22;100.00
13348;BME280;6743;49.934;9.138;2023-01-28T05:36:34;101385.38;;;2.20;100.00
13348;BME280;6743;49.934;9.138;2023-01-28T05:39:00;101387.16;;;2.19;100.00
13348;BME280;6743;49.934;9.138;2023-01-28T05:41:26;101398.53;;;2.18;100.00
13348;BME280;6743;49.934;9.138;2023-01-28T05:43:52;101389.84;;;2.18;100.00
13348;BME280;6743;49.934;9.138;2023-01-28T05:46:18;101391.53;;;2.19;100.00
13348;BME280;6743;49.934;9.138;2023-01-28T05:48:45;101396.84;;;2.17;100.00
13348;BME280;6743;49.934;9.138;2023-01-28T05:51:11;101399.47;;;2.17;100.00
13348;BME280;6743;49.934;9.138;2023-01-28T05:53:36;101404.78;;;2.16;100.00
13348;BME280;6743;49.934;9.138;2023-01-28T05:56:03;101408.31;;;2.15;100.00
13348;BME280;6743;49.934;9.138;2023-01-28T05:58:29;101409.28;;;2.14;100.00
13348;BME280;6743;49.934;9.138;2023-01-28T06:00:56;101412.81;;;2.13;100.00
13348;BME280;6743;49.934;9.138;2023-01-28T06:03:22;101417.22;;;2.12;100.00
13348;BME280;6743;49.934;9.138;2023-01-28T06:05:49;101422.50;;;2.11;100.00
13348;BME280;6743;49.934;9.138;2023-01-28T06:08:15;101421.66;;;2.10;100.00
13348;BME280;6743;49.934;9.138;2023-01-28T06:10:41;101432.97;;;2.11;100.00
13348;BME280;6743;49.934;9.138;2023-01-28T06:13:07;101433.91;;;2.10;100.00
13348;BME280;6743;49.934;9.138;2023-01-28T06:15:33;101433.13;;;2.08;100.00
13348;BME280;6743;49.934;9.138;2023-01-28T06:17:59;101435.69;;;2.09;100.00
13348;BME280;6743;49.934;9.138;2023-01-28T06:20:25;101442.78;;;2.07;100.00
13348;BME280;6743;49.934;9.138;2023-01-28T06:22:51;101438.56;;;2.05;100.00
13348;BME280;6743;49.934;9.138;2023-01-28T06:25:18;101444.63;;;2.05;100.00
13348;BME280;6743;49.934;9.138;2023-01-28T06:27:44;101451.63;;;2.05;100.00
13348;BME280;6743;49.934;9.138;2023-01-28T06:30:11;101457.03;;;2.02;100.00
13348;BME280;6743;49.934;9.138;2023-01-28T06:32:37;101465.91;;;1.99;100.00
13348;BME280;6743;49.934;9.138;2023-01-28T06:35:03;101464.97;;;2.00;100.00
13348;BME280;6743;49.934;9.138;2023-01-28T06:37:29;101471.03;;;2.01;100.00
13348;BME280;6743;49.934;9.138;2023-01-28T06:39:56;101467.66;;;1.98;100.00
13348;BME280;6743;49.934;9.138;2023-01-28T06:42:22;101469.25;;;2.01;100.00
13348;BME280;6743;49.934;9.138;2023-01-28T06:44:48;101465.91;;;1.99;100.00
13348;BME280;6743;49.934;9.138;2023-01-28T06:47:14;101464.19;;;1.98;100.00
13348;BME280;6743;49.934;9.138;2023-01-28T06:49:40;101448.38;;;1.84;100.00
13348;BME280;6743;49.934;9.138;2023-01-28T06:52:06;101474.66;;;1.98;100.00
13348;BME280;6743;49.934;9.138;2023-01-28T06:54:32;101474.59;;;2.00;100.00
13348;BME280;6743;49.934;9.138;2023-01-28T06:56:59;101471.97;;;2.00;100.00
13348;BME280;6743;49.934;9.138;2023-01-28T06:59:25;101477.03;;;2.03;100.00
13348;BME280;6743;49.934;9.138;2023-01-28T07:01:51;101475.19;;;2.05;100.00
13348;BME280;6743;49.934;9.138;2023-01-28T07:04:17;101478.66;;;2.05;100.00
13348;BME280;6743;49.934;9.138;2023-01-28T07:06:43;101481.28;;;2.05;100.00
13348;BME280;6743;49.934;9.138;2023-01-28T07:09:09;101482.13;;;2.06;100.00
13348;BME280;6743;49.934;9.138;2023-01-28T07:11:35;101486.44;;;2.07;100.00
13348;BME280;6743;49.934;9.138;2023-01-28T07:14:02;101478.47;;;2.08;100.00
13348;BME280;6743;49.934;9.138;2023-01-28T07:16:28;101487.19;;;2.09;100.00
13348;BME280;6743;49.934;9.138;2023-01-28T07:18:54;101470.50;;;1.94;100.00
13348;BME280;6743;49.934;9.138;2023-01-28T07:21:19;101495.88;;;2.09;100.00
13348;BME280;6743;49.934;9.138;2023-01-28T07:23:45;101493.19;;;2.11;100.00
13348;BME280;6743;49.934;9.138;2023-01-28T07:26:11;101493.19;;;2.11;100.00
13348;BME280;6743;49.934;9.138;2023-01-28T07:28:37;101486.19;;;2.11;100.00
13348;BME280;6743;49.934;9.138;2023-01-28T07:31:04;101481.88;;;2.10;100.00
13348;BME280;6743;49.934;9.138;2023-01-28T07:33:30;101458.44;;;1.91;100.00
13348;BME280;6743;49.934;9.138;2023-01-28T07:35:56;101489.72;;;2.10;100.00
13348;BME280;6743;49.934;9.138;2023-01-28T07:38:22;101498.44;;;2.11;100.00
13348;BME280;6743;49.934;9.138;2023-01-28T07:40:48;101486.25;;;2.10;100.00
13348;BME280;6743;49.934;9.138;2023-01-28T07:43:14;101477.87;;;2.03;100.00
13348;BME280;6743;49.934;9.138;2023-01-28T07:45:40;101490.50;;;2.12;100.00
13348;BME280;6743;49.934;9.138;2023-01-28T07:48:10;101498.28;;;2.14;100.00
13348;BME280;6743;49.934;9.138;2023-01-28T07:50:37;101494.72;;;2.15;100.00
13348;BME280;6743;49.934;9.138;2023-01-28T07:53:05;101501.03;;;2.11;100.00
13348;BME280;6743;49.934;9.138;2023-01-28T07:55:31;101504.50;;;2.11;100.00
13348;BME280;6743;49.934;9.138;2023-01-28T07:58:00;101509.66;;;2.13;100.00
13348;BME280;6743;49.934;9.138;2023-01-28T08:00:28;101517.44;;;2.14;100.00
13348;BME280;6743;49.934;9.138;2023-01-28T08:02:56;101503.06;;;2.06;100.00
13348;BME280;6743;49.934;9.138;2023-01-28T08:05:23;101522.59;;;2.16;100.00
13348;BME280;6743;49.934;9.138;2023-01-28T08:07:49;101519.13;;;2.15;100.00
13348;BME280;6743;49.934;9.138;2023-01-28T08:10:16;101524.34;;;2.15;100.00
13348;BME280;6743;49.934;9.138;2023-01-28T08:12:50;101525.31;;;2.14;100.00
13348;BME280;6743;49.934;9.138;2023-01-28T08:15:16;101529.59;;;2.15;100.00
13348;BME280;6743;49.934;9.138;2023-01-28T08:17:42;101526.91;;;2.17;100.00
13348;BME280;6743;49.934;9.138;2023-01-28T08:20:09;101522.59;;;2.16;100.00
13348;BME280;6743;49.934;9.138;2023-01-28T08:22:36;101530.38;;;2.17;100.00
13348;BME280;6743;49.934;9.138;2023-01-28T08:25:02;101542.53;;;2.18;100.00
13348;BME280;6743;49.934;9.138;2023-01-28T08:27:28;101538.16;;;2.19;100.00
13348;BME280;6743;49.934;9.138;2023-01-28T08:29:54;101547.69;;;2.20;100.00
13348;BME280;6743;49.934;9.138;2023-01-28T08:32:20;101513.59;;;2.04;100.00
13348;BME280;6743;49.934;9.138;2023-01-28T08:34:46;101541.69;;;2.18;100.00
13348;BME280;6743;49.934;9.138;2023-01-28T08:37:12;101542.47;;;2.20;100.00
13348;BME280;6743;49.934;9.138;2023-01-28T08:39:38;101543.47;;;2.17;100.00
13348;BME280;6743;49.934;9.138;2023-01-28T08:42:05;101546.06;;;2.17;100.00
13348;BME280;6743;49.934;9.138;2023-01-28T08:44:31;101547.69;;;2.20;100.00
13348;BME280;6743;49.934;9.138;2023-01-28T08:46:58;101541.53;;;2.21;100.00
13348;BME280;6743;49.934;9.138;2023-01-28T08:49:24;101540.50;;;2.23;100.00
13348;BME280;6743;49.934;9.138;2023-01-28T08:51:50;101542.22;;;2.24;100.00
13348;BME280;6743;49.934;9.138;2023-01-28T08:54:16;101545.53;;;2.28;100.00
13348;BME280;6743;49.934;9.138;2023-01-28T08:56:43;101541.87;;;2.30;100.00
13348;BME280;6743;49.934;9.138;2023-01-28T08:59:09;101552.34;;;2.30;100.00
13348;BME280;6743;49.934;9.138;2023-01-28T09:01:35;101548.75;;;2.33;100.00
13348;BME280;6743;49.934;9.138;2023-01-28T09:04:01;101540.38;;;2.26;100.00
13348;BME280;6743;49.934;9.138;2023-01-28T09:06:27;101550.59;;;2.31;100.00
13348;BME280;6743;49.934;9.138;2023-01-28T09:08:55;101553.13;;;2.32;100.00
13348;BME280;6743;49.934;9.138;2023-01-28T09:11:21;101556.59;;;2.33;100.00
13348;BME280;6743;49.934;9.138;2023-01-28T09:13:50;101552.22;;;2.33;100.00
13348;BME280;6743;49.934;9.138;2023-01-28T09:16:16;101541.22;;;2.27;100.00
13348;BME280;6743;49.934;9.138;2023-01-28T09:18:42;101564.38;;;2.34;100.00
13348;BME280;6743;49.934;9.138;2023-01-28T09:21:08;101566.75;;;2.39;100.00
13348;BME280;6743;49.934;9.138;2023-01-28T09:23:35;101579.91;;;2.37;100.00
13348;BME280;6743;49.934;9.138;2023-01-28T09:26:01;101581.69;;;2.37;100.00
13348;BME280;6743;49.934;9.138;2023-01-28T09:28:28;101577.16;;;2.41;100.00
13348;BME280;6743;49.934;9.138;2023-01-28T09:31:00;101577.16;;;2.41;100.00
13348;BME280;6743;49.934;9.138;2023-01-28T09:33:26;101586.59;;;2.43;100.00
13348;BME280;6743;49.934;9.138;2023-01-28T09:35:52;101583.13;;;2.43;100.00
13348;BME280;6743;49.934;9.138;2023-01-28T09:38:18;101586.72;;;2.42;100.00
13348;BME280;6743;49.934;9.138;2023-01-28T09:40:44;101572.37;;;2.31;100.00
13348;BME280;6743;49.934;9.138;2023-01-28T09:43:31;101584.09;;;2.42;100.00
13348;BME280;6743;49.934;9.138;2023-01-28T09:46:03;101579.78;;;2.41;100.00
13348;BME280;6743;49.934;9.138;2023-01-28T09:48:33;101593.78;;;2.40;100.00
13348;BME280;6743;49.934;9.138;2023-01-28T09:51:02;101592.09;;;2.38;100.00
13348;BME280;6743;49.934;9.138;2023-01-28T09:53:35;101594.78;;;2.37;100.00
13348;BME280;6743;49.934;9.138;2023-01-28T09:56:04;101593.94;;;2.36;100.00
13348;BME280;6743;49.934;9.138;2023-01-28T09:58:32;101599.19;;;2.36;100.00
13348;BME280;6743;49.934;9.138;2023-01-28T10:01:03;101597.34;;;2.38;100.00
13348;BME280;6743;49.934;9.138;2023-01-28T10:03:46;101598.25;;;2.37;100.00
13348;BME280;6743;49.934;9.138;2023-01-28T10:06:25;101600.88;;;2.37;100.00
13348;BME280;6743;49.934;9.138;2023-01-28T10:09:11;101601.91;;;2.35;100.00
13348;BME280;6743;49.934;9.138;2023-01-28T10:11:57;101601.25;;;2.30;100.00
13348;BME280;6743;49.934;9.138;2023-01-28T10:14:34;101598.56;;;2.31;100.00
13348;BME280;6743;49.934;9.138;2023-01-28T10:17:07;101605.91;;;2.25;100.00
13348;BME280;6743;49.934;9.138;2023-01-28T10:19:40;101611.38;;;2.20;100.00
13348;BME280;6743;49.934;9.138;2023-01-28T10:22:12;101613.22;;;2.18;100.00
13348;BME280;6743;49.934;9.138;2023-01-28T10:24:45;101608.12;;;2.15;100.00
13348;BME280;6743;49.934;9.138;2023-01-28T10:27:16;101602.22;;;2.12;100.00
13348;BME280;6743;49.934;9.138;2023-01-28T10:29:42;101612.69;;;2.12;100.00
13348;BME280;6743;49.934;9.138;2023-01-28T10:32:20;101614.47;;;2.11;100.00
13348;BME280;6743;49.934;9.138;2023-01-28T10:34:47;101613.75;;;2.08;100.00
13348;BME280;6743;49.934;9.138;2023-01-28T10:37:14;101620.63;;;2.10;100.00
13348;BME280;6743;49.934;9.138;2023-01-28T10:39:41;101613.53;;;2.12;100.00
13348;BME280;6743;49.934;9.138;2023-01-28T10:42:16;101610.84;;;2.14;100.00
13348;BME280;6743;49.934;9.138;2023-01-28T10:44:44;101613.75;;;2.08;100.00
13348;BME280;6743;49.934;9.138;2023-01-28T10:47:15;101600.31;;;1.98;100.00
13348;BME280;6743;49.934;9.138;2023-01-28T10:49:48;101612.81;;;2.09;100.00
13348;BME280;6743;49.934;9.138;2023-01-28T10:52:17;101622.38;;;2.10;100.00
13348;BME280;6743;49.934;9.138;2023-01-28T10:54:43;101615.63;;;2.06;100.00
13348;BME280;6743;49.934;9.138;2023-01-28T10:57:12;101624.94;;;2.11;100.00
13348;BME280;6743;49.934;9.138;2023-01-28T10:59:39;101625.78;;;2.12;100.00
13348;BME280;6743;49.934;9.138;2023-01-28T11:02:23;101622.38;;;2.10;100.00
13348;BME280;6743;49.934;9.138;2023-01-28T11:05:00;101602.84;;;2.00;100.00
13348;BME280;6743;49.934;9.138;2023-01-28T11:07:26;101621.78;;;2.05;100.00
13348;BME280;6743;49.934;9.138;2023-01-28T11:09:52;101625.91;;;2.09;100.00
13348;BME280;6743;49.934;9.138;2023-01-28T11:12:20;101626.03;;;2.07;100.00
13348;BME280;6743;49.934;9.138;2023-01-28T11:14:49;101626.69;;;2.11;100.00
13348;BME280;6743;49.934;9.138;2023-01-28T11:17:16;101633.56;;;2.13;100.00
13348;BME280;6743;49.934;9.138;2023-01-28T11:19:44;101630.94;;;2.13;100.00
13348;BME280;6743;49.934;9.138;2023-01-28T11:22:21;101623.09;;;2.13;100.00
13348;BME280;6743;49.934;9.138;2023-01-28T11:24:47;101627.53;;;2.11;100.00
13348;BME280;6743;49.934;9.138;2023-01-28T11:27:15;101626.69;;;2.11;100.00
13348;BME280;6743;49.934;9.138;2023-01-28T11:29:45;101625.91;;;2.09;100.00
13348;BME280;6743;49.934;9.138;2023-01-28T11:32:18;101631.16;;;2.09;100.00
13348;BME280;6743;49.934;9.138;2023-01-28T11:34:50;101630.22;;;2.10;100.00
13348;BME280;6743;49.934;9.138;2023-01-28T11:37:19;101621.31;;;2.14;100.00
13348;BME280;6743;49.934;9.138;2023-01-28T11:39:46;101599.53;;;1.96;100.00
13348;BME280;6743;49.934;9.138;2023-01-28T11:42:16;101623.09;;;2.13;100.00
13348;BME280;6743;49.934;9.138;2023-01-28T11:44:43;101614.59;;;2.08;100.00
13348;BME280;6743;49.934;9.138;2023-01-28T11:47:18;101615.44;;;2.09;100.00
13348;BME280;6743;49.934;9.138;2023-01-28T11:50:10;101619.09;;;2.06;100.00
13348;BME280;6743;49.934;9.138;2023-01-28T11:52:50;101621.91;;;2.02;100.00
13348;BME280;6743;49.934;9.138;2023-01-28T11:55:27;101615.75;;;2.03;100.00
13348;BME280;6743;49.934;9.138;2023-01-28T11:58:08;101613.06;;;2.04;100.00
13348;BME280;6743;49.934;9.138;2023-01-28T12:00:43;101611.97;;;2.08;100.00
13348;BME280;6743;49.934;9.138;2023-01-28T12:03:41;101621.47;;;2.11;100.00
13348;BME280;6743;49.934;9.138;2023-01-28T12:06:30;101608.22;;;2.14;100.00
13348;BME280;6743;49.934;9.138;2023-01-28T12:09:10;101608.38;;;2.11;100.00
13348;BME280;6743;49.934;9.138;2023-01-28T12:11:47;101597.97;;;2.09;100.00
13348;BME280;6743;49.934;9.138;2023-01-28T12:15:01;101598.22;;;2.05;100.00
13348;BME280;6743;49.934;9.138;2023-01-28T12:17:37;101576.03;;;1.94;100.00
13348;BME280;6743;49.934;9.138;2023-01-28T12:20:13;101591.88;;;2.09;100.00
13348;BME280;6743;49.934;9.138;2023-01-28T12:22:58;101593.06;;;2.03;100.00
13348;BME280;6743;49.934;9.138;2023-01-28T12:25:38;101595.00;;;2.00;100.00
13348;BME280;6743;49.934;9.138;2023-01-28T12:28:14;101596.97;;;1.94;100.00
13348;BME280;6743;49.934;9.138;2023-01-28T12:30:56;101589.13;;;1.94;100.00
13348;BME280;6743;49.934;9.138;2023-01-28T12:33:42;101595.19;;;1.95;100.00
13348;BME280;6743;49.934;9.138;2023-01-28T12:36:24;101589.75;;;2.00;100.00
13348;BME280;6743;49.934;9.138;2023-01-28T12:39:02;101593.91;;;2.04;100.00
13348;BME280;6743;49.934;9.138;2023-01-28T12:41:34;101594.50;;;2.09;100.00
13348;BME280;6743;49.934;9.138;2023-01-28T12:44:04;101597.28;;;2.06;100.00
13348;BME280;6743;49.934;9.138;2023-01-28T12:46:43;101589.59;;;2.03;100.00
13348;BME280;6743;49.934;9.138;2023-01-28T12:49:14;101601.16;;;1.98;100.00
13348;BME280;6743;49.934;9.138;2023-01-28T12:51:48;101586.50;;;1.94;100.00
13348;BME280;6743;49.934;9.138;2023-01-28T12:54:23;101585.38;;;2.00;100.00
13348;BME280;6743;49.934;9.138;2023-01-28T12:56:53;101586.03;;;2.04;100.00
13348;BME280;6743;49.934;9.138;2023-01-28T12:59:22;101575.28;;;1.92;100.00
13348;BME280;6743;49.934;9.138;2023-01-28T13:01:53;101583.56;;;2.01;100.00
13348;BME280;6743;49.934;9.138;2023-01-28T13:04:30;101583.69;;;1.99;100.00
13348;BME280;6743;49.934;9.138;2023-01-28T13:07:00;101588.12;;;1.97;100.00
13348;BME280;6743;49.934;9.138;2023-01-28T13:09:28;101585.28;;;2.02;100.00
13348;BME280;6743;49.934;9.138;2023-01-28T13:11:57;101591.22;;;2.05;100.00
13348;BME280;6743;49.934;9.138;2023-01-28T13:14:28;101584.03;;;2.09;100.00